createdAt,value
2023-01-21T00:01:17.068Z,1.00
2023-01-21T00:03:45.715Z,1.00
2023-01-21T00:06:15.960Z,1.00
2023-01-21T00:08:44.445Z,1.00
2023-01-21T00:11:14.994Z,1.00
2023-01-21T00:13:43.893Z,1.00
2023-01-21T00:16:12.338Z,1.00
2023-01-21T00:18:40.744Z,1.00
2023-01-21T00:21:09.099Z,1.00
2023-01-21T00:23:38.721Z,1.00
2023-01-21T00:26:08.042Z,1.30
2023-01-21T00:28:37.116Z,2.50
2023-01-21T00:31:06.722Z,5.30
2023-01-21T00:33:35.121Z,6.30
2023-01-21T00:36:05.619Z,6.20
2023-01-21T00:38:34.037Z,6.90
2023-01-21T00:41:04.599Z,7.60
2023-01-21T00:43:32.989Z,7.50
2023-01-21T00:46:01.500Z,7.20
2023-01-21T00:48:29.966Z,8.00
2023-01-21T00:51:00.620Z,7.80
2023-01-21T00:53:29.177Z,7.80
2023-01-21T00:56:01.574Z,7.90
2023-01-21T00:58:31.381Z,8.00
2023-01-21T01:01:03.655Z,7.90
2023-01-21T01:03:32.226Z,7.50
2023-01-21T01:06:05.184Z,7.60
2023-01-21T01:08:33.703Z,8.00
2023-01-21T01:11:02.163Z,8.00
2023-01-21T01:13:31.910Z,8.00
2023-01-21T01:16:00.385Z,8.50
2023-01-21T01:18:29.079Z,8.40
2023-01-21T01:20:57.548Z,8.70
2023-01-21T01:23:25.919Z,9.80
2023-01-21T01:25:58.274Z,10.10
2023-01-21T01:28:26.681Z,9.80
2023-01-21T01:30:56.471Z,9.10
2023-01-21T01:33:24.981Z,8.70
2023-01-21T01:35:53.341Z,8.40
2023-01-21T01:38:23.360Z,8.70
2023-01-21T01:40:53.163Z,9.00
2023-01-21T01:43:24.232Z,8.90
2023-01-21T01:45:52.481Z,8.80
2023-01-21T01:48:24.666Z,8.90
2023-01-21T01:50:52.966Z,9.30
2023-01-21T01:53:21.264Z,8.40
2023-01-21T01:55:49.536Z,8.50
2023-01-21T01:58:18.086Z,8.30
2023-01-21T02:00:46.469Z,8.60
2023-01-21T02:03:33.197Z,8.30
2023-01-21T02:06:03.223Z,8.20
2023-01-21T02:08:32.715Z,7.70
2023-01-21T02:11:02.582Z,8.00
2023-01-21T02:13:31.880Z,8.20
2023-01-21T02:16:25.393Z,8.00
2023-01-21T02:18:58.642Z,7.80
2023-01-21T02:22:03.994Z,7.50
2023-01-21T02:25:26.541Z,7.30
2023-01-21T02:28:23.127Z,7.20
2023-01-21T02:31:34.088Z,7.20
2023-01-21T02:34:24.336Z,6.60
2023-01-21T02:37:11.105Z,6.60
2023-01-21T02:40:07.162Z,6.40
2023-01-21T02:42:41.102Z,6.20
2023-01-21T02:45:21.231Z,5.20
2023-01-21T02:47:54.818Z,4.90
2023-01-21T02:50:26.023Z,4.90
2023-01-21T02:52:58.467Z,4.30
2023-01-21T02:55:30.548Z,2.60
2023-01-21T02:58:01.040Z,2.60
2023-01-21T03:00:33.256Z,2.50
2023-01-21T03:03:35.393Z,1.90
2023-01-21T03:06:51.249Z,2.00
2023-01-21T03:09:23.110Z,1.40
2023-01-21T03:12:03.211Z,1.00
2023-01-21T03:14:50.984Z,1.00
2023-01-21T03:17:26.538Z,1.00
2023-01-21T03:19:58.979Z,1.00
2023-01-21T03:22:32.386Z,1.00
2023-01-21T03:25:02.174Z,1.00
2023-01-21T03:27:30.961Z,1.00
2023-01-21T03:30:00.740Z,1.00
2023-01-21T03:32:29.875Z,1.00
2023-01-21T03:34:58.280Z,1.00
2023-01-21T03:37:31.607Z,1.00
2023-01-21T03:40:06.709Z,1.00
2023-01-21T03:42:35.032Z,1.00
2023-01-21T03:45:03.415Z,1.00
2023-01-21T03:47:33.455Z,1.00
2023-01-21T03:50:05.401Z,1.00
2023-01-21T03:52:35.119Z,1.00
2023-01-21T03:55:03.431Z,1.00
2023-01-21T03:57:31.664Z,1.00
2023-01-21T04:00:00.043Z,1.00
2023-01-21T04:02:28.335Z,1.00
2023-01-21T04:04:56.680Z,1.00
2023-01-21T04:07:25.033Z,1.00
2023-01-21T04:09:54.651Z,1.00
2023-01-21T04:12:23.162Z,1.00
2023-01-21T04:14:51.452Z,1.00
2023-01-21T04:17:19.733Z,1.00
2023-01-21T04:19:48.047Z,1.00
2023-01-21T04:22:16.358Z,1.00
2023-01-21T04:24:44.697Z,1.00
2023-01-21T04:27:14.404Z,1.00
2023-01-21T04:29:42.722Z,1.00
2023-01-21T04:32:11.036Z,1.00
2023-01-21T04:34:39.388Z,1.00
2023-01-21T04:37:07.719Z,1.00
2023-01-21T04:39:36.107Z,1.00
2023-01-21T04:42:05.287Z,1.00
2023-01-21T04:44:34.922Z,1.00
2023-01-21T04:47:03.203Z,1.00
2023-01-21T04:49:31.512Z,1.00
2023-01-21T04:51:59.881Z,1.00
2023-01-21T04:54:28.210Z,1.00
2023-01-21T04:56:56.519Z,1.00
2023-01-21T04:59:24.875Z,1.00
2023-01-21T05:01:54.627Z,1.00
2023-01-21T05:04:22.948Z,1.00
2023-01-21T05:06:51.401Z,1.00
2023-01-21T05:09:19.763Z,1.00
2023-01-21T05:11:48.336Z,1.00
2023-01-21T05:14:16.556Z,1.00
2023-01-21T05:16:44.852Z,1.00
2023-01-21T05:19:14.628Z,1.00
2023-01-21T05:21:42.917Z,1.00
2023-01-21T05:24:11.693Z,1.00
2023-01-21T05:26:40.059Z,1.00
2023-01-21T05:29:08.370Z,1.00
2023-01-21T05:31:36.827Z,1.00
2023-01-21T05:34:05.286Z,1.00
2023-01-21T05:36:34.907Z,1.00
2023-01-21T05:39:03.307Z,1.00
2023-01-21T05:41:31.670Z,1.00
2023-01-21T05:44:00.027Z,1.00
2023-01-21T05:46:28.363Z,1.00
2023-01-21T05:48:56.724Z,1.00
2023-01-21T05:51:25.064Z,1.00
2023-01-21T05:53:55.476Z,1.00
2023-01-21T05:56:23.772Z,1.00
2023-01-21T05:58:52.116Z,1.00
2023-01-21T06:01:20.464Z,1.00
2023-01-21T06:03:48.880Z,1.00
2023-01-21T06:06:17.289Z,1.00
2023-01-21T06:08:45.621Z,1.00
2023-01-21T06:11:15.305Z,1.00
2023-01-21T06:13:43.559Z,1.00
2023-01-21T06:16:11.987Z,1.00
2023-01-21T06:18:40.343Z,1.00
2023-01-21T06:21:08.630Z,1.00
2023-01-21T06:23:37.036Z,1.00
2023-01-21T06:26:05.690Z,1.00
2023-01-21T06:28:35.404Z,1.00
2023-01-21T06:31:04.130Z,1.00
2023-01-21T06:33:32.557Z,1.00
2023-01-21T06:36:00.871Z,1.00
2023-01-21T06:38:29.419Z,1.00
2023-01-21T06:40:57.802Z,1.00
2023-01-21T06:43:26.153Z,1.00
2023-01-21T06:45:55.928Z,1.00
2023-01-21T06:48:24.345Z,1.00
2023-01-21T06:50:52.727Z,1.00
2023-01-21T06:53:21.080Z,1.00
2023-01-21T06:55:49.501Z,1.00
2023-01-21T06:58:17.760Z,1.00
2023-01-21T07:00:46.026Z,1.00
2023-01-21T07:03:16.061Z,1.00
2023-01-21T07:05:44.328Z,1.00
2023-01-21T07:08:12.639Z,1.00
2023-01-21T07:10:41.189Z,1.00
2023-01-21T07:13:09.499Z,1.00
2023-01-21T07:15:37.843Z,1.00
2023-01-21T07:18:06.380Z,1.00
2023-01-21T07:20:36.067Z,1.00
2023-01-21T07:23:04.315Z,1.00
2023-01-21T07:25:33.360Z,1.00
2023-01-21T07:28:01.621Z,1.00
2023-01-21T07:30:29.910Z,1.00
2023-01-21T07:32:58.321Z,1.00
2023-01-21T07:35:26.716Z,1.00
2023-01-21T07:37:56.425Z,1.00
2023-01-21T07:40:24.824Z,1.00
2023-01-21T07:42:53.824Z,1.00
2023-01-21T07:45:22.416Z,1.00
2023-01-21T07:47:50.840Z,1.00
2023-01-21T07:50:19.321Z,1.00
2023-01-21T07:52:47.684Z,1.00
2023-01-21T07:55:17.575Z,1.00
2023-01-21T07:57:46.053Z,1.00
2023-01-21T08:00:16.506Z,1.00
2023-01-21T08:02:44.889Z,1.00
2023-01-21T08:05:13.475Z,1.00
2023-01-21T08:07:41.788Z,1.00
2023-01-21T08:10:11.692Z,1.00
2023-01-21T08:12:41.797Z,1.00
2023-01-21T08:15:11.041Z,1.00
2023-01-21T08:17:39.790Z,1.00
2023-01-21T08:20:10.539Z,1.00
2023-01-21T08:22:38.835Z,1.00
2023-01-21T08:25:08.617Z,1.00
2023-01-21T08:27:36.968Z,1.00
2023-01-21T08:30:08.366Z,1.00
2023-01-21T08:32:36.689Z,1.00
2023-01-21T08:35:06.184Z,1.00
2023-01-21T08:37:34.467Z,1.00
2023-01-21T08:40:03.457Z,1.00
2023-01-21T08:42:31.841Z,1.00
2023-01-21T08:45:00.137Z,1.00
2023-01-21T08:47:29.798Z,1.00
2023-01-21T08:49:58.432Z,1.00
2023-01-21T08:52:27.027Z,1.00
2023-01-21T08:54:55.340Z,1.00
2023-01-21T08:57:23.683Z,1.00
2023-01-21T08:59:51.999Z,1.00
2023-01-21T09:02:20.407Z,1.00
2023-01-21T09:04:51.294Z,1.00
2023-01-21T09:07:19.593Z,1.00
2023-01-21T09:09:49.976Z,1.00
2023-01-21T09:12:18.268Z,1.00
2023-01-21T09:14:46.612Z,1.00
2023-01-21T09:17:14.918Z,1.00
2023-01-21T09:19:43.279Z,1.00
2023-01-21T09:22:13.887Z,1.00
2023-01-21T09:24:42.186Z,1.00
2023-01-21T09:27:10.565Z,1.00
2023-01-21T09:29:38.841Z,1.00
2023-01-21T09:32:07.403Z,1.00
2023-01-21T09:34:36.004Z,1.00
2023-01-21T09:37:05.096Z,1.00
2023-01-21T09:39:34.837Z,1.00
2023-01-21T09:42:03.214Z,1.00
2023-01-21T09:44:33.382Z,1.00
2023-01-21T09:47:05.035Z,1.00
2023-01-21T09:49:36.008Z,1.00
2023-01-21T09:52:10.287Z,1.00
2023-01-21T09:54:40.565Z,1.00
2023-01-21T09:57:48.482Z,1.00
2023-01-21T10:00:32.425Z,1.00
2023-01-21T10:03:05.416Z,1.00
2023-01-21T10:05:59.244Z,1.00
2023-01-21T10:08:33.737Z,1.00
2023-01-21T10:11:18.771Z,1.00
2023-01-21T10:14:03.686Z,1.00
2023-01-21T10:16:36.840Z,1.00
2023-01-21T10:19:05.950Z,1.00
2023-01-21T10:21:36.903Z,1.00
2023-01-21T10:24:10.656Z,1.00
2023-01-21T10:26:40.295Z,1.00
2023-01-21T10:29:10.635Z,1.00
2023-01-21T10:31:41.642Z,1.00
2023-01-21T10:34:14.108Z,1.00
2023-01-21T10:36:55.133Z,1.00
2023-01-21T10:39:34.586Z,1.00
2023-01-21T10:42:19.170Z,1.00
2023-01-21T10:44:52.244Z,1.00
2023-01-21T10:47:28.259Z,1.00
2023-01-21T10:50:01.499Z,1.00
2023-01-21T10:52:36.144Z,1.00
2023-01-21T10:55:08.839Z,1.00
2023-01-21T10:57:51.097Z,1.00
2023-01-21T11:00:23.332Z,1.00
2023-01-21T11:02:55.330Z,1.00
2023-01-21T11:05:24.058Z,1.00
2023-01-21T11:07:52.325Z,1.00
2023-01-21T11:10:23.510Z,1.00
2023-01-21T11:12:54.603Z,1.00
2023-01-21T11:15:23.252Z,1.00
2023-01-21T11:17:53.749Z,1.00
2023-01-21T11:20:26.512Z,1.00
2023-01-21T11:22:54.764Z,1.00
2023-01-21T11:25:29.401Z,1.00
2023-01-21T11:27:59.019Z,1.00
2023-01-21T11:30:49.612Z,1.00
2023-01-21T11:33:25.862Z,1.00
2023-01-21T11:35:54.412Z,1.00
2023-01-21T11:38:31.840Z,1.00
2023-01-21T11:41:15.529Z,1.00
2023-01-21T11:43:46.179Z,1.00
2023-01-21T11:46:31.654Z,1.00
2023-01-21T11:49:23.017Z,1.00
2023-01-21T11:51:51.376Z,1.00
2023-01-21T11:54:20.605Z,1.00
2023-01-21T11:56:57.538Z,1.00
2023-01-21T11:59:29.159Z,1.00
2023-01-21T12:01:59.145Z,1.00
2023-01-21T12:04:27.586Z,1.00
2023-01-21T12:06:58.128Z,1.00
2023-01-21T12:09:27.277Z,1.00
2023-01-21T12:12:29.450Z,1.00
2023-01-21T12:15:00.332Z,1.00
2023-01-21T12:17:45.226Z,1.00
2023-01-21T12:20:22.027Z,1.00
2023-01-21T12:23:00.104Z,1.00
2023-01-21T12:25:38.347Z,1.00
2023-01-21T12:28:38.773Z,1.00
2023-01-21T12:31:21.414Z,1.00
2023-01-21T12:33:53.271Z,1.00
2023-01-21T12:36:24.096Z,1.00
2023-01-21T12:39:07.648Z,1.00
2023-01-21T12:41:35.975Z,1.00
2023-01-21T12:44:17.926Z,1.00
2023-01-21T12:46:49.190Z,1.00
2023-01-21T12:49:21.411Z,1.00
2023-01-21T12:51:52.428Z,1.00
2023-01-21T12:54:25.005Z,1.00
2023-01-21T12:56:56.484Z,1.00
2023-01-21T12:59:26.794Z,1.00
2023-01-21T13:02:00.054Z,1.00
2023-01-21T13:04:43.789Z,1.00
2023-01-21T13:07:20.153Z,1.00
2023-01-21T13:09:53.920Z,1.00
2023-01-21T13:12:23.434Z,1.00
2023-01-21T13:14:55.501Z,1.00
2023-01-21T13:17:28.165Z,1.00
2023-01-21T13:19:56.516Z,1.00
2023-01-21T13:22:34.972Z,1.00
2023-01-21T13:25:12.677Z,1.00
2023-01-21T13:27:44.597Z,1.00
2023-01-21T13:30:22.229Z,1.00
2023-01-21T13:32:56.271Z,1.00
2023-01-21T13:35:42.097Z,1.00
2023-01-21T13:38:19.581Z,1.00
2023-01-21T13:40:53.326Z,1.00
2023-01-21T13:43:39.066Z,1.00
2023-01-21T13:46:17.975Z,1.00
2023-01-21T13:49:04.596Z,1.00
2023-01-21T13:51:44.781Z,1.00
2023-01-21T13:54:31.609Z,1.00
2023-01-21T13:57:25.487Z,1.00
2023-01-21T13:59:55.260Z,1.00
2023-01-21T14:02:25.513Z,1.00
2023-01-21T14:04:57.207Z,1.00
2023-01-21T14:07:28.090Z,1.00
2023-01-21T14:10:00.197Z,1.00
2023-01-21T14:12:39.767Z,1.00
2023-01-21T14:15:49.589Z,1.00
2023-01-21T14:18:31.336Z,1.00
2023-01-21T14:21:18.496Z,1.00
2023-01-21T14:24:05.213Z,1.00
2023-01-21T14:26:44.567Z,1.00
2023-01-21T14:29:17.405Z,1.00
2023-01-21T14:31:47.925Z,1.00
2023-01-21T14:34:19.406Z,1.00
2023-01-21T14:36:55.297Z,1.00
2023-01-21T14:39:37.481Z,1.00
2023-01-21T14:42:10.920Z,1.00
2023-01-21T14:44:46.170Z,1.00
2023-01-21T14:47:19.844Z,1.00
2023-01-21T14:49:49.305Z,1.00
2023-01-21T14:52:20.568Z,1.00
2023-01-21T14:54:48.896Z,1.00
2023-01-21T14:57:29.622Z,1.00
2023-01-21T15:00:12.792Z,1.00
2023-01-21T15:02:43.072Z,1.00
2023-01-21T15:05:20.140Z,1.00
2023-01-21T15:07:50.817Z,1.00
2023-01-21T15:10:21.205Z,1.00
2023-01-21T15:12:53.404Z,1.00
2023-01-21T15:15:31.021Z,1.00
2023-01-21T15:18:05.544Z,1.00
2023-01-21T15:20:46.571Z,1.00
2023-01-21T15:23:28.342Z,1.00
2023-01-21T15:26:31.593Z,1.00
2023-01-21T15:29:24.216Z,1.00
2023-01-21T15:31:52.826Z,1.00
2023-01-21T15:34:21.399Z,1.00
2023-01-21T15:36:53.135Z,1.00
2023-01-21T15:39:26.507Z,1.00
2023-01-21T15:42:04.965Z,1.00
2023-01-21T15:44:54.331Z,1.00
2023-01-21T15:47:46.481Z,1.00
2023-01-21T15:50:21.948Z,3.70
2023-01-21T15:53:03.669Z,7.80
2023-01-21T15:55:51.324Z,10.30
2023-01-21T15:58:24.128Z,12.80
2023-01-21T16:00:56.596Z,14.30
2023-01-21T16:03:28.356Z,15.70
2023-01-21T16:06:02.437Z,16.20
2023-01-21T16:08:51.989Z,17.20
2023-01-21T16:11:44.577Z,18.20
2023-01-21T16:14:27.068Z,19.70
2023-01-21T16:17:00.174Z,19.70
2023-01-21T16:19:30.538Z,19.80
2023-01-21T16:22:02.260Z,20.50
2023-01-21T16:24:31.115Z,20.90
2023-01-21T16:27:17.889Z,21.20
2023-01-21T16:29:46.224Z,21.90
2023-01-21T16:32:18.589Z,22.20
2023-01-21T16:34:47.143Z,22.30
2023-01-21T16:37:19.952Z,22.50
2023-01-21T16:39:48.567Z,22.70
2023-01-21T16:42:27.421Z,23.10
2023-01-21T16:44:55.747Z,23.50
2023-01-21T16:47:27.227Z,23.50
2023-01-21T16:49:55.722Z,23.40
2023-01-21T16:52:24.886Z,23.40
2023-01-21T16:54:53.706Z,23.50
2023-01-21T16:57:28.814Z,23.50
2023-01-21T16:59:58.126Z,23.80
2023-01-21T17:02:28.479Z,24.10
2023-01-21T17:04:58.740Z,24.20
2023-01-21T17:07:28.907Z,24.40
2023-01-21T17:10:01.156Z,24.60
2023-01-21T17:12:30.820Z,24.80
2023-01-21T17:15:00.612Z,25.10
2023-01-21T17:17:32.131Z,25.30
2023-01-21T17:20:01.066Z,25.20
2023-01-21T17:22:31.460Z,25.30
2023-01-21T17:25:07.433Z,25.40
2023-01-21T17:27:38.561Z,25.40
2023-01-21T17:30:30.291Z,25.50
2023-01-21T17:33:00.035Z,25.50
2023-01-21T17:35:29.158Z,25.60
2023-01-21T17:37:58.501Z,25.60
2023-01-21T17:40:32.473Z,25.80
2023-01-21T17:43:20.522Z,25.90
2023-01-21T17:45:51.887Z,26.00
2023-01-21T17:48:28.493Z,26.00
2023-01-21T17:51:04.750Z,26.00
2023-01-21T17:53:33.498Z,26.10
2023-01-21T17:56:03.033Z,26.30
2023-01-21T17:58:49.836Z,26.40
2023-01-21T18:01:18.588Z,26.50
2023-01-21T18:03:46.979Z,26.60
2023-01-21T18:06:20.302Z,26.50
2023-01-21T18:08:50.502Z,26.50
2023-01-21T18:11:18.855Z,26.60
2023-01-21T18:13:48.653Z,26.50
2023-01-21T18:16:17.022Z,26.60
2023-01-21T18:18:45.383Z,26.70
2023-01-21T18:21:20.237Z,26.70
2023-01-21T18:23:48.824Z,26.70
2023-01-21T18:26:23.989Z,26.80
2023-01-21T18:28:53.599Z,26.80
2023-01-21T18:31:22.689Z,26.90
2023-01-21T18:33:51.104Z,27.30
2023-01-21T18:36:19.417Z,27.00
2023-01-21T18:38:47.771Z,27.20
2023-01-21T18:41:16.092Z,27.30
2023-01-21T18:43:44.434Z,27.30
2023-01-21T18:46:16.277Z,27.20
2023-01-21T18:48:44.621Z,27.20
2023-01-21T18:51:13.906Z,27.10
2023-01-21T18:53:42.191Z,27.20
2023-01-21T18:56:13.804Z,27.20
2023-01-21T18:58:42.157Z,27.20
2023-01-21T19:01:21.933Z,27.20
2023-01-21T19:03:54.769Z,27.20
2023-01-21T19:06:23.238Z,27.30
2023-01-21T19:08:51.623Z,27.30
2023-01-21T19:11:19.922Z,27.30
2023-01-21T19:13:48.354Z,27.30
2023-01-21T19:16:18.358Z,27.30
2023-01-21T19:18:46.875Z,27.30
2023-01-21T19:21:16.561Z,27.30
2023-01-21T19:23:44.831Z,27.30
2023-01-21T19:26:14.735Z,27.30
2023-01-21T19:28:43.327Z,27.40
2023-01-21T19:31:11.865Z,27.40
2023-01-21T19:33:42.732Z,27.40
2023-01-21T19:36:15.892Z,27.40
2023-01-21T19:38:46.832Z,27.40
2023-01-21T19:41:15.101Z,27.40
2023-01-21T19:43:43.420Z,27.40
2023-01-21T19:46:12.553Z,27.40
2023-01-21T19:48:41.171Z,27.40
2023-01-21T19:51:09.682Z,27.40
2023-01-21T19:53:38.074Z,27.40
2023-01-21T19:56:12.697Z,27.40
2023-01-21T19:58:42.089Z,27.40
2023-01-21T20:01:10.477Z,27.40
2023-01-21T20:03:43.478Z,27.50
2023-01-21T20:06:16.670Z,27.50
2023-01-21T20:08:44.989Z,27.50
2023-01-21T20:11:16.410Z,27.40
2023-01-21T20:13:44.728Z,27.50
2023-01-21T20:16:16.284Z,27.50
2023-01-21T20:18:46.114Z,27.50
2023-01-21T20:21:14.481Z,27.50
2023-01-21T20:23:42.793Z,27.50
2023-01-21T20:26:18.141Z,27.50
2023-01-21T20:28:50.290Z,27.50
2023-01-21T20:31:18.988Z,27.50
2023-01-21T20:33:47.450Z,27.50
2023-01-21T20:36:19.358Z,27.50
2023-01-21T20:38:47.808Z,27.50
2023-01-21T20:41:17.573Z,27.50
2023-01-21T20:43:45.867Z,27.50
2023-01-21T20:46:16.743Z,27.50
2023-01-21T20:48:45.648Z,27.30
2023-01-21T20:51:14.097Z,27.30
2023-01-21T20:53:42.499Z,27.40
2023-01-21T20:56:19.938Z,27.30
2023-01-21T20:58:48.892Z,27.30
2023-01-21T21:01:18.834Z,27.20
2023-01-21T21:03:47.310Z,27.10
2023-01-21T21:06:16.570Z,27.20
2023-01-21T21:08:44.983Z,27.10
2023-01-21T21:11:13.409Z,27.10
2023-01-21T21:13:43.139Z,27.20
2023-01-21T21:16:19.019Z,27.00
2023-01-21T21:18:47.482Z,26.80
2023-01-21T21:21:15.783Z,26.70
2023-01-21T21:23:46.435Z,26.60
2023-01-21T21:26:22.079Z,26.50
2023-01-21T21:28:54.561Z,26.50
2023-01-21T21:31:23.351Z,26.60
2023-01-21T21:33:51.773Z,26.50
2023-01-21T21:36:21.727Z,26.30
2023-01-21T21:38:52.281Z,26.30
2023-01-21T21:41:39.786Z,25.90
2023-01-21T21:44:09.908Z,26.00
2023-01-21T21:46:55.544Z,25.80
2023-01-21T21:49:23.876Z,26.10
2023-01-21T21:51:52.165Z,25.90
2023-01-21T21:54:20.850Z,25.70
2023-01-21T21:56:49.465Z,25.50
2023-01-21T21:59:19.183Z,25.40
2023-01-21T22:01:47.471Z,24.90
2023-01-21T22:04:15.857Z,24.70
2023-01-21T22:06:44.274Z,24.80
2023-01-21T22:09:13.828Z,24.90
2023-01-21T22:11:42.074Z,25.10
2023-01-21T22:14:10.385Z,25.10
2023-01-21T22:16:40.248Z,24.90
2023-01-21T22:19:08.665Z,25.00
2023-01-21T22:21:37.014Z,24.80
2023-01-21T22:24:06.811Z,24.90
2023-01-21T22:26:35.719Z,25.00
2023-01-21T22:29:04.136Z,24.50
2023-01-21T22:31:33.227Z,24.70
2023-01-21T22:34:02.966Z,24.60
2023-01-21T22:36:31.726Z,24.60
2023-01-21T22:39:00.309Z,24.60
2023-01-21T22:41:28.801Z,24.60
2023-01-21T22:43:57.172Z,24.60
2023-01-21T22:46:26.757Z,24.50
2023-01-21T22:48:55.286Z,24.30
2023-01-21T22:51:25.134Z,24.30
2023-01-21T22:53:53.864Z,24.00
2023-01-21T22:56:39.903Z,24.00
2023-01-21T22:59:12.118Z,24.00
2023-01-21T23:01:40.540Z,23.90
2023-01-21T23:04:09.616Z,23.90
2023-01-21T23:06:39.344Z,24.00
2023-01-21T23:09:09.689Z,23.90
2023-01-21T23:11:41.478Z,23.90
2023-01-21T23:14:10.634Z,23.90
2023-01-21T23:16:38.881Z,23.90
2023-01-21T23:19:07.165Z,24.00
2023-01-21T23:21:37.638Z,24.00
2023-01-21T23:24:08.514Z,24.10
2023-01-21T23:26:36.852Z,23.90
2023-01-21T23:29:05.236Z,23.90
2023-01-21T23:31:33.576Z,23.90
2023-01-21T23:34:03.286Z,23.90
2023-01-21T23:36:31.527Z,24.00
2023-01-21T23:38:59.799Z,23.90
2023-01-21T23:41:29.555Z,23.90
2023-01-21T23:44:00.798Z,23.90
2023-01-21T23:46:29.211Z,23.90
2023-01-21T23:48:57.620Z,23.90
2023-01-21T23:51:25.931Z,23.90
2023-01-21T23:53:54.920Z,23.80
2023-01-21T23:56:24.306Z,23.80
2023-01-21T23:58:54.896Z,23.90
